This is the latest recevied weather packets stored in our database for station/object KC8TAI. If no packets are shown the sender has not sent any weather packets the latest 10 day(s).
| Time | Temp. | Humidity | Pressure | Rain* | Wind** | Luminosity | Snow |
|---|---|---|---|---|---|---|---|
| 1777403116 | 16.11° C | 90% | 1015.8 hPa | 0 mm | - | 185 W/m² | - |
| 1777402516 | 16.11° C | 89% | 1015.8 hPa | 0 mm | - | 228 W/m² | - |
| 1777400116 | 15.56° C | 91% | 1015.8 hPa | 0 mm | - | 190 W/m² | - |
| 1777399517 | 15° C | 90% | 1015.7 hPa | 0 mm | - | 196 W/m² | - |
| 1777395918 | 15.56° C | 84% | 1015.8 hPa | 0 mm | - | 190 W/m² | - |
| 1777388725 | 15° C | 79% | 1015.3 hPa | 0 mm | - | 206 W/m² | - |
| 1777384527 | 12.78° C | 87% | 1015.2 hPa | 0 mm | - | 118 W/m² | - |
| 1777383926 | 12.78° C | 88% | 1015.3 hPa | 0 mm | - | 114 W/m² | - |
| 1777378529 | 11.11° C | 92% | 1015.2 hPa | 0 mm | - | 44 W/m² | - |
| 1777374917 | 10° C | 94% | 1010.4 hPa | 1.52 mm | - | 13 W/m² | - |
| 1777374330 | 10° C | 94% | 1014.6 hPa | 1.52 mm | - | 6 W/m² | - |
| 1777367716 | 10.56° C | 88% | 1016 hPa | 2.03 mm | - | 0 W/m² | - |
| 1777362938 | 13.33° C | 70% | 1015.9 hPa | 0 mm | - | 0 W/m² | - |
| 1777360518 | 13.33° C | 69% | 1016.7 hPa | 0 mm | - | 0 W/m² | - |
| 1777356317 | 13.89° C | 62% | 1017.1 hPa | 0 mm | - | 0 W/m² | - |
| 1777350316 | 15° C | 59% | 1017.3 hPa | 0 mm | - | 0 W/m² | - |
| 1777338916 | 16.67° C | 56% | 1019.1 hPa | 0 mm | - | 0 W/m² | - |
| 1777335917 | 17.78° C | 51% | 1019.1 hPa | 0 mm | - | 0 W/m² | - |
| 1777328716 | 21.11° C | 45% | 1019.2 hPa | 0 mm | - | 170 W/m² | - |
| 1777326316 | 21.67° C | 44% | 1018.7 hPa | 0 mm | - | 248 W/m² | - |
| 1777325717 | 22.22° C | 44% | 1018.6 hPa | 0 mm | - | 257 W/m² | - |
| 1777323917 | 22.78° C | 42% | 1018.6 hPa | 0 mm | - | 473 W/m² | - |
| 1777321538 | 23.33° C | 43% | 1018.7 hPa | 0 mm | - | 583 W/m² | - |
| 1777318516 | 22.78° C | 42% | 1019.5 hPa | 0 mm | - | 814 W/m² | - |
| 1777317316 | 22.22° C | 44% | 1019.7 hPa | 0 mm | - | 769 W/m² | - |
* Rain latest hour (hover to see other rain measurements)
** Current wind speed in m/s (hover to see current wind gust speed)